Lamont, IA (50650)

6:26 AM CDT on July 27, 2016 (GMT -0500)
Northridge Addition | | Change Station

Elev 935 ft 42.48 °N, 91.89 °W | Updated 8 seconds ago

Fog
Fog
64.0 °F
Feels Like 64.0 °F
N
0.0
Wind Variable Wind from NNE
Gusts 0.0 mph

Today
High -- | Low -- °F
--% Chance of Precip.
Yesterday
High -- | Low -- °F
Precip. -- in
Pressure 30.01 in
Visibility 0.2 miles
Clouds Overcast 100 ft
Dew Point 64 °F
Humidity 98%
Rainfall 0.00 in
Snow Depth Not available.
5:53 AM 8:31 PM
Last Quarter, 44% visible
METAR KVTI 271115Z AUTO 00000KT 1/4SM FG OVC001 17/16 A3001 RMK AO2
Pressure 30.01 in
Visibility 0.2 miles
Clouds Overcast 100 ft
Dew Point 64 °F
Humidity 98%
Rainfall 0.00 in
Snow Depth Not available.
5:53 AM 8:31 PM
Last Quarter, 44% visible
METAR KVTI 271115Z AUTO 00000KT 1/4SM FG OVC001 17/16 A3001 RMK AO2

10-Day Weather Forecast

Almanac

Astronomy

Jul. 27, 2016 Rise Set
Actual Time
Civil Twilight
Nautical Twilight
Astronomical Twilight
Moon
Length of Visible Light
Length of Day
Tomorrow will be .
, % of the Moon is Illuminated

Today's Extremes

State Highs State Lows

Community

WunderPhotos

Upload Photos

1,927,826 photos uploaded!

WunderBlog® & News

Nearby

Air Quality

  Air Quality AQ Index Pollutant
Not available.

Snow Depth

Station Depth Elevation

Earthquake Activity

City Distance Mag. Time & Date
Minimum magnitude displayed is 2.5.

Coastal Water Temperatures

Place Temperature

Stations

Nearby Weather Stations

Station Location Temp. Windchill Dew Point Humidity Wind Precip. Elev Updated Type
                   

Watches & Warnings

There are currently no watches in effect.